Time;durP1;ratioP1;P1;durP2;ratioP2;P2;SDS_P1;SDS_P2;PMS_P1;PMS_P2;Temp;Humidity;BMP_temperature;BMP_pressure;BME280_temperature;BME280_humidity;BME280_pressure;Samples;Min_cycle;Max_cycle;Signal;HPM_P1;HPM_P2
2023/03/24 00:00:22;;;;;;;;;;;;;;;4.22;100.00;99961.88;5093584;28;1885;-57
2023/03/24 00:02:50;;;;;;;;;;;;;;;3.76;100.00;99958.06;5093606;28;819;-57
2023/03/24 00:05:18;;;;;;;;;;;;;;;3.50;100.00;99951.16;5093505;28;894;-57
2023/03/24 00:07:45;;;;;;;;;;;;;;;3.38;100.00;99953.94;5075292;28;1618;-57
2023/03/24 00:10:14;;;;;;;;;;;;;;;3.29;100.00;99954.13;5093157;28;1395;-57
2023/03/24 00:12:41;;;;;;;;;;;;;;;3.13;100.00;99948.59;5093351;28;859;-57
2023/03/24 00:15:09;;;;;;;;;;;;;;;3.00;100.00;99942.41;5093553;28;876;-57
2023/03/24 00:17:38;;;;;;;;;;;;;;;2.88;100.00;99945.19;5093245;28;904;-57
2023/03/24 00:20:13;;;;;;;;;;;;;;;2.77;100.00;99944.06;5093498;28;1965;-57
2023/03/24 00:22:48;;;;;;;;;;;;;;;2.64;100.00;99943.31;5093133;28;942;-57
2023/03/24 00:25:19;;;;;;;;;;;;;;;2.60;100.00;99945.16;5093046;28;855;-57
2023/03/24 00:27:50;;;;;;;;;;;;;;;2.46;100.00;99948.25;5093018;28;955;-57
2023/03/24 00:30:18;;;;;;;;;;;;;;;2.33;100.00;99938.53;5092982;28;958;-57
2023/03/24 00:32:45;;;;;;;;;;;;;;;2.22;100.00;99943.66;5093141;28;832;-58
2023/03/24 00:35:12;;;;;;;;;;;;;;;2.16;100.00;99940.34;5092969;28;828;-57
2023/03/24 00:37:40;;;;;;;;;;;;;;;2.10;100.00;99941.72;5092917;28;930;-57
2023/03/24 00:40:11;;;;;;;;;;;;;;;2.02;100.00;99946.13;5092676;28;1906;-57
2023/03/24 00:42:39;;;;;;;;;;;;;;;1.99;100.00;99955.00;5093004;28;851;-56
2023/03/24 00:45:07;;;;;;;;;;;;;;;1.98;100.00;99949.88;5092804;28;843;-57
2023/03/24 00:47:40;;;;;;;;;;;;;;;1.93;100.00;99944.69;5092562;28;883;-56
2023/03/24 00:50:10;;;;;;;;;;;;;;;1.86;100.00;99938.97;5092693;28;827;-56
2023/03/24 00:52:36;;;;;;;;;;;;;;;1.79;100.00;99942.28;5092611;28;839;-57
2023/03/24 00:55:04;;;;;;;;;;;;;;;1.76;100.00;99937.50;5074465;28;911;-56
2023/03/24 00:57:33;;;;;;;;;;;;;;;1.69;100.00;99932.63;5092492;28;847;-57
2023/03/24 01:00:08;;;;;;;;;;;;;;;1.63;100.00;99925.81;5092729;28;1870;-57
2023/03/24 01:02:34;;;;;;;;;;;;;;;1.59;100.00;99922.16;5092633;28;966;-57
2023/03/24 01:05:01;;;;;;;;;;;;;;;1.60;100.00;99926.47;5092442;28;847;-57
2023/03/24 01:07:29;;;;;;;;;;;;;;;1.69;100.00;99924.47;5091887;28;874;-56
2023/03/24 01:09:56;;;;;;;;;;;;;;;1.71;100.00;99922.19;5091876;28;1408;-57
2023/03/24 01:12:27;;;;;;;;;;;;;;;1.69;100.00;99916.28;5092297;28;835;-57
2023/03/24 01:14:53;;;;;;;;;;;;;;;1.67;100.00;99913.09;5092113;28;938;-57
2023/03/24 01:17:28;;;;;;;;;;;;;;;1.59;100.00;99917.50;5092187;28;866;-57
2023/03/24 01:19:55;;;;;;;;;;;;;;;1.56;100.00;99917.41;5092049;28;1901;-57
2023/03/24 01:22:26;;;;;;;;;;;;;;;1.66;100.00;99918.88;5092018;28;982;-56
2023/03/24 01:24:52;;;;;;;;;;;;;;;1.73;100.00;99919.09;5091950;28;804;-57
2023/03/24 01:27:20;;;;;;;;;;;;;;;1.71;100.00;99913.19;5092131;28;862;-57
2023/03/24 01:29:46;;;;;;;;;;;;;;;1.57;100.00;99910.81;5092017;28;914;-57
2023/03/24 01:32:13;;;;;;;;;;;;;;;1.51;100.00;99914.88;5092103;28;831;-57
2023/03/24 01:34:40;;;;;;;;;;;;;;;1.55;100.00;99918.53;5092211;28;890;-57
2023/03/24 01:37:06;;;;;;;;;;;;;;;1.60;100.00;99919.13;5092123;28;835;-57
2023/03/24 01:39:33;;;;;;;;;;;;;;;1.59;100.00;99922.97;5092166;28;1949;-57
2023/03/24 01:42:00;;;;;;;;;;;;;;;1.56;100.00;99918.19;5091879;28;852;-57
2023/03/24 01:44:27;;;;;;;;;;;;;;;1.55;100.00;99922.03;5092471;28;779;-56
2023/03/24 01:46:55;;;;;;;;;;;;;;;1.59;100.00;99920.22;5092080;28;812;-56
2023/03/24 01:49:23;;;;;;;;;;;;;;;1.63;100.00;99915.69;5091961;28;808;-57
2023/03/24 01:51:52;;;;;;;;;;;;;;;1.68;100.00;99919.34;5091818;28;831;-56
2023/03/24 01:54:26;;;;;;;;;;;;;;;1.74;100.00;99915.25;5091527;28;851;-57
2023/03/24 01:57:00;;;;;;;;;;;;;;;1.77;100.00;99909.94;5091538;28;954;-57
2023/03/24 01:59:29;;;;;;;;;;;;;;;1.86;100.00;99918.00;5091697;28;1886;-56
2023/03/24 02:02:02;;;;;;;;;;;;;;;1.90;100.00;99915.34;5091922;28;991;-57
2023/03/24 02:04:30;;;;;;;;;;;;;;;1.94;100.00;99913.53;5091613;28;898;-57
2023/03/24 02:06:58;;;;;;;;;;;;;;;1.99;100.00;99914.13;5091686;28;823;-57
2023/03/24 02:09:24;;;;;;;;;;;;;;;2.00;100.00;99910.25;5091625;28;1381;-57
2023/03/24 02:11:51;;;;;;;;;;;;;;;1.99;100.00;99913.31;5091392;28;911;-57
2023/03/24 02:14:18;;;;;;;;;;;;;;;1.94;100.00;99911.63;5091532;28;831;-57
2023/03/24 02:16:53;;;;;;;;;;;;;;;1.93;100.00;99917.41;5091446;28;922;-57
2023/03/24 02:19:25;;;;;;;;;;;;;;;1.97;100.00;99912.88;5092310;28;1977;-57
2023/03/24 02:22:07;;;;;;;;;;;;;;;2.01;100.00;99916.50;5095381;28;914;-57
2023/03/24 02:25:03;;;;;;;;;;;;;;;2.02;100.00;99921.59;5095526;28;867;-57
2023/03/24 02:27:57;;;;;;;;;;;;;;;2.06;100.00;99929.13;5078416;28;1783;-57
2023/03/24 02:30:29;;;;;;;;;;;;;;;2.12;100.00;99928.53;5095368;28;882;-57
2023/03/24 02:33:08;;;;;;;;;;;;;;;2.21;100.00;99931.91;5095341;28;871;-57
2023/03/24 02:35:51;;;;;;;;;;;;;;;2.29;100.00;99932.94;5095604;28;851;-57
2023/03/24 02:38:25;;;;;;;;;;;;;;;2.39;100.00;99939.84;5095229;28;1957;-57
2023/03/24 02:41:00;;;;;;;;;;;;;;;2.42;100.00;99948.16;5095489;28;899;-57
2023/03/24 02:43:32;;;;;;;;;;;;;;;2.48;100.00;99946.00;5095021;28;929;-57
2023/03/24 02:46:06;;;;;;;;;;;;;;;2.44;100.00;99942.34;5095078;28;852;-57
2023/03/24 02:48:36;;;;;;;;;;;;;;;2.34;100.00;99959.19;5095039;28;930;-57
2023/03/24 02:51:05;;;;;;;;;;;;;;;2.20;100.00;99962.28;5094879;28;1100;-57
2023/03/24 02:53:39;;;;;;;;;;;;;;;2.01;100.00;99965.59;5094854;28;851;-57
2023/03/24 02:56:16;;;;;;;;;;;;;;;1.83;100.00;99965.81;5094973;28;827;-57
2023/03/24 02:58:55;;;;;;;;;;;;;;;1.64;100.00;99970.97;5094686;28;1893;-57
2023/03/24 03:01:30;;;;;;;;;;;;;;;1.52;100.00;99968.25;5094674;28;871;-56
2023/03/24 03:04:11;;;;;;;;;;;;;;;1.45;100.00;99971.50;5094799;28;847;-57
2023/03/24 03:06:39;;;;;;;;;;;;;;;1.38;100.00;99969.34;5094643;28;1059;-57
2023/03/24 03:09:09;;;;;;;;;;;;;;;1.37;100.00;99969.69;5094933;28;882;-57
2023/03/24 03:11:37;;;;;;;;;;;;;;;1.37;100.00;99964.25;5094601;28;1242;-57
2023/03/24 03:14:08;;;;;;;;;;;;;;;1.42;100.00;99970.25;5094682;28;840;-57
2023/03/24 03:16:58;;;;;;;;;;;;;;;1.50;100.00;99970.53;5094591;28;846;-57
2023/03/24 03:19:29;;;;;;;;;;;;;;;1.58;100.00;99969.59;5094223;28;1910;-57
2023/03/24 03:21:57;;;;;;;;;;;;;;;1.67;100.00;99975.78;5094314;28;851;-57
2023/03/24 03:24:26;;;;;;;;;;;;;;;1.72;100.00;99969.31;5094342;28;890;-57
2023/03/24 03:27:01;;;;;;;;;;;;;;;1.77;100.00;99971.78;5094254;28;898;-57
2023/03/24 03:29:32;;;;;;;;;;;;;;;1.80;100.00;99969.19;5094696;28;878;-57
2023/03/24 03:32:07;;;;;;;;;;;;;;;1.78;100.00;99966.00;5093901;28;899;-57
2023/03/24 03:34:46;;;;;;;;;;;;;;;1.78;100.00;99970.69;5094116;28;1176;-57
2023/03/24 03:37:23;;;;;;;;;;;;;;;1.77;100.00;99964.44;5094133;28;807;-57
2023/03/24 03:40:01;;;;;;;;;;;;;;;1.74;100.00;99967.81;5094005;28;1885;-57
2023/03/24 03:42:27;;;;;;;;;;;;;;;1.71;100.00;99954.88;5094065;28;1062;-57
2023/03/24 03:44:54;;;;;;;;;;;;;;;1.65;100.00;99945.34;5093965;28;870;-57
2023/03/24 03:47:21;;;;;;;;;;;;;;;1.60;100.00;99930.00;5093851;28;937;-57
2023/03/24 03:49:49;;;;;;;;;;;;;;;1.63;100.00;99929.31;5093713;28;878;-57
2023/03/24 03:52:16;;;;;;;;;;;;;;;1.66;100.00;99922.38;5093628;28;955;-57
2023/03/24 03:54:44;;;;;;;;;;;;;;;1.76;100.00;99924.69;5093789;28;859;-57
2023/03/24 03:57:12;;;;;;;;;;;;;;;1.85;100.00;99932.75;5093849;28;917;-57
2023/03/24 03:59:39;;;;;;;;;;;;;;;1.97;100.00;99932.75;5093638;28;1930;-57
2023/03/24 04:02:28;;;;;;;;;;;;;;;2.10;100.00;99938.19;5093701;28;831;-57
2023/03/24 04:05:01;;;;;;;;;;;;;;;2.16;100.00;99945.00;5093624;28;867;-57
2023/03/24 04:07:34;;;;;;;;;;;;;;;2.22;100.00;99938.97;5093426;28;957;-57
2023/03/24 04:10:03;;;;;;;;;;;;;;;2.33;100.00;99943.97;5093407;28;1374;-57
2023/03/24 04:12:38;;;;;;;;;;;;;;;2.41;100.00;99941.13;5093815;28;871;-57
2023/03/24 04:15:13;;;;;;;;;;;;;;;2.54;100.00;99939.16;5093281;28;929;-57
2023/03/24 04:17:58;;;;;;;;;;;;;;;2.68;100.00;99938.75;5093596;28;870;-57
2023/03/24 04:20:31;;;;;;;;;;;;;;;2.77;100.00;99933.16;5093070;28;1894;-57
2023/03/24 04:22:59;;;;;;;;;;;;;;;2.92;100.00;99935.16;5093089;28;929;-57
2023/03/24 04:25:34;;;;;;;;;;;;;;;3.05;100.00;99936.69;5093704;28;859;-57
2023/03/24 04:28:19;;;;;;;;;;;;;;;3.13;100.00;99934.16;5093017;28;941;-57
2023/03/24 04:30:51;;;;;;;;;;;;;;;3.20;100.00;99934.34;5093115;28;1007;-57
2023/03/24 04:33:27;;;;;;;;;;;;;;;3.25;100.00;99929.41;5093028;28;811;-57
2023/03/24 04:36:05;;;;;;;;;;;;;;;3.24;100.00;99927.03;5093129;28;990;-57
2023/03/24 04:38:35;;;;;;;;;;;;;;;3.22;100.00;99932.88;5092804;28;1960;-57
2023/03/24 04:41:02;;;;;;;;;;;;;;;3.25;100.00;99936.84;5092742;28;883;-57
2023/03/24 04:43:35;;;;;;;;;;;;;;;3.28;100.00;99933.38;5092175;28;895;-57
2023/03/24 04:46:03;;;;;;;;;;;;;;;3.32;100.00;99937.00;5092673;28;935;-57
2023/03/24 04:48:30;;;;;;;;;;;;;;;3.37;100.00;99927.75;5092705;28;883;-57
2023/03/24 04:50:57;;;;;;;;;;;;;;;3.41;100.00;99942.31;5092576;28;875;-57
2023/03/24 04:53:23;;;;;;;;;;;;;;;3.46;100.00;99942.06;5092588;28;858;-57
2023/03/24 04:55:56;;;;;;;;;;;;;;;3.51;100.00;99935.53;5092635;28;815;-57
2023/03/24 04:58:22;;;;;;;;;;;;;;;3.48;100.00;99947.97;5074342;28;1874;-59
2023/03/24 05:00:50;;;;;;;;;;;;;;;3.44;100.00;99942.41;5092561;28;942;-59
2023/03/24 05:03:17;;;;;;;;;;;;;;;3.42;100.00;99950.16;5092702;28;899;-59
2023/03/24 05:05:45;;;;;;;;;;;;;;;3.39;100.00;99953.63;5092446;28;879;-59
2023/03/24 05:08:12;;;;;;;;;;;;;;;3.38;100.00;99949.28;5092354;28;1025;-59
2023/03/24 05:10:39;;;;;;;;;;;;;;;3.38;100.00;99960.19;5091984;28;1197;-59
2023/03/24 05:13:05;;;;;;;;;;;;;;;3.41;100.00;99958.69;5092317;28;890;-59
2023/03/24 05:15:32;;;;;;;;;;;;;;;3.45;100.00;99965.06;5092207;28;914;-59
2023/03/24 05:17:59;;;;;;;;;;;;;;;3.53;100.00;99960.59;5092269;28;835;-59
2023/03/24 05:20:26;;;;;;;;;;;;;;;3.64;100.00;99958.91;5092239;28;1906;-59
2023/03/24 05:22:54;;;;;;;;;;;;;;;3.82;100.00;99970.28;5092147;28;847;-57
2023/03/24 05:25:22;;;;;;;;;;;;;;;4.22;100.00;99966.56;5091933;28;954;-58
2023/03/24 05:27:49;;;;;;;;;;;;;;;4.64;100.00;99965.94;5073845;28;1238;-59
2023/03/24 05:30:15;;;;;;;;;;;;;;;5.43;100.00;99979.25;5092031;28;811;-59
2023/03/24 05:32:43;;;;;;;;;;;;;;;5.97;100.00;99979.44;5091965;28;830;-56
2023/03/24 05:35:09;;;;;;;;;;;;;;;6.25;100.00;99984.59;5091881;28;879;-56
2023/03/24 05:37:36;;;;;;;;;;;;;;;6.17;100.00;99986.44;5091777;28;1029;-58
2023/03/24 05:40:03;;;;;;;;;;;;;;;5.85;100.00;99994.91;5091791;28;1898;-59
2023/03/24 05:42:29;;;;;;;;;;;;;;;5.76;100.00;100004.53;5091825;28;879;-59
2023/03/24 05:44:56;;;;;;;;;;;;;;;6.07;100.00;100004.31;5091841;28;985;-59
2023/03/24 05:47:22;;;;;;;;;;;;;;;6.67;100.00;100000.13;5091764;28;843;-59
2023/03/24 05:49:50;;;;;;;;;;;;;;;6.94;100.00;100001.66;5091643;28;812;-58
2023/03/24 05:52:21;;;;;;;;;;;;;;;7.21;100.00;100003.53;5091719;28;879;-56
2023/03/24 05:54:50;;;;;;;;;;;;;;;7.37;100.00;100012.38;5091747;28;876;-56
2023/03/24 05:57:18;;;;;;;;;;;;;;;7.48;100.00;99998.75;5091632;28;910;-56
2023/03/24 05:59:44;;;;;;;;;;;;;;;7.85;100.00;100003.44;5091861;28;1929;-55
2023/03/24 06:02:11;;;;;;;;;;;;;;;8.16;100.00;100015.91;5091598;28;847;-55
2023/03/24 06:04:37;;;;;;;;;;;;;;;8.18;100.00;100005.31;5091459;28;895;-55
2023/03/24 06:07:04;;;;;;;;;;;;;;;8.06;100.00;99997.34;5091562;28;859;-55
2023/03/24 06:09:41;;;;;;;;;;;;;;;7.89;100.00;100002.28;5091452;28;1460;-55
2023/03/24 06:12:08;;;;;;;;;;;;;;;8.47;100.00;99983.50;5091360;28;959;-55
2023/03/24 06:14:34;;;;;;;;;;;;;;;9.61;100.00;99988.72;5091773;28;887;-54
2023/03/24 06:16:59;;;;;;;;;;;;;;;10.03;100.00;99998.25;5091477;28;832;-55
2023/03/24 06:19:26;;;;;;;;;;;;;;;9.97;100.00;99997.06;5091045;28;1910;-55
2023/03/24 06:21:53;;;;;;;;;;;;;;;9.98;100.00;99991.13;5091402;28;859;-55
2023/03/24 06:24:20;;;;;;;;;;;;;;;10.38;100.00;99994.69;5091331;28;936;-58
2023/03/24 06:26:49;;;;;;;;;;;;;;;11.19;100.00;99994.88;5091390;28;922;-56
2023/03/24 06:29:18;;;;;;;;;;;;;;;12.02;100.00;100006.28;5073262;28;1841;-57
2023/03/24 06:31:47;;;;;;;;;;;;;;;12.36;100.00;100002.84;5091217;28;851;-55
2023/03/24 06:34:13;;;;;;;;;;;;;;;12.73;100.00;100003.28;5091454;28;855;-55
2023/03/24 06:36:40;;;;;;;;;;;;;;;13.19;100.00;99997.19;5091282;28;875;-55
2023/03/24 06:39:06;;;;;;;;;;;;;;;13.03;100.00;99995.00;5091105;28;1945;-55
2023/03/24 06:44:34;;;;;;;;;;;;;;;11.35;100.00;99994.41;5091304;28;641;-55
2023/03/24 06:47:01;;;;;;;;;;;;;;;11.24;100.00;99997.22;5091065;28;891;-55
2023/03/24 06:49:27;;;;;;;;;;;;;;;12.01;100.00;99998.38;5091009;28;879;-54
2023/03/24 06:51:54;;;;;;;;;;;;;;;12.81;100.00;99993.69;5091134;28;859;-56
2023/03/24 06:54:21;;;;;;;;;;;;;;;13.22;100.00;99988.03;5091041;28;792;-56
2023/03/24 06:56:47;;;;;;;;;;;;;;;13.32;100.00;99989.13;5091254;28;899;-56
2023/03/24 06:59:16;;;;;;;;;;;;;;;13.16;100.00;99992.47;5090974;28;1890;-57
2023/03/24 07:01:42;;;;;;;;;;;;;;;12.73;100.00;99992.97;5091027;28;867;-57
2023/03/24 07:04:10;;;;;;;;;;;;;;;12.25;100.00;99991.06;5091228;28;865;-58
2023/03/24 07:06:37;;;;;;;;;;;;;;;12.15;100.00;99986.41;5093736;28;958;-57
2023/03/24 07:09:04;;;;;;;;;;;;;;;12.38;100.00;99992.13;5094948;28;1113;-57
2023/03/24 07:11:30;;;;;;;;;;;;;;;13.21;100.00;99989.25;5094377;28;1425;-57
2023/03/24 07:13:58;;;;;;;;;;;;;;;14.13;100.00;99984.78;5094494;28;914;-57
2023/03/24 07:16:25;;;;;;;;;;;;;;;14.78;100.00;99990.00;5094583;28;887;-57
2023/03/24 07:18:54;;;;;;;;;;;;;;;15.27;100.00;99995.78;5076105;28;1970;-57
2023/03/24 07:21:24;;;;;;;;;;;;;;;15.59;100.00;99991.50;5094314;28;871;-57
2023/03/24 07:23:51;;;;;;;;;;;;;;;16.01;100.00;99994.56;5094363;28;823;-57
2023/03/24 07:26:18;;;;;;;;;;;;;;;16.29;100.00;99991.06;5094315;28;891;-57
2023/03/24 07:28:45;;;;;;;;;;;;;;;16.32;100.00;99992.19;5094301;28;867;-58
2023/03/24 07:31:11;;;;;;;;;;;;;;;16.35;100.00;99996.13;5094292;28;812;-58
2023/03/24 07:33:38;;;;;;;;;;;;;;;16.15;100.00;99990.63;5094476;28;836;-58
2023/03/24 07:36:06;;;;;;;;;;;;;;;16.25;100.00;99995.16;5094049;28;864;-58
2023/03/24 07:38:33;;;;;;;;;;;;;;;16.16;100.00;99995.00;5094035;28;1909;-58
2023/03/24 07:41:00;;;;;;;;;;;;;;;16.18;100.00;99992.56;5093935;28;994;-58
2023/03/24 07:43:26;;;;;;;;;;;;;;;16.44;100.00;99987.91;5075811;28;1650;-58
2023/03/24 07:45:52;;;;;;;;;;;;;;;16.37;100.00;99988.88;5093927;28;863;-58
2023/03/24 07:48:19;;;;;;;;;;;;;;;16.72;100.00;99987.13;5093876;28;903;-58
2023/03/24 07:50:46;;;;;;;;;;;;;;;17.21;100.00;99989.00;5093908;28;911;-58
2023/03/24 07:53:17;;;;;;;;;;;;;;;17.31;100.00;99984.31;5093845;28;887;-58
2023/03/24 07:55:43;;;;;;;;;;;;;;;17.43;100.00;99988.34;5093680;28;933;-58
2023/03/24 07:58:10;;;;;;;;;;;;;;;17.27;100.00;99987.22;5093708;28;855;-58
2023/03/24 08:00:37;;;;;;;;;;;;;;;17.55;100.00;99985.56;5093526;28;1886;-58
2023/03/24 08:03:04;;;;;;;;;;;;;;;17.62;100.00;99981.00;5093619;28;899;-58
2023/03/24 08:05:30;;;;;;;;;;;;;;;17.55;100.00;99985.56;5093773;28;945;-57
2023/03/24 08:07:57;;;;;;;;;;;;;;;17.63;100.00;99988.94;5093508;28;923;-58
2023/03/24 08:10:25;;;;;;;;;;;;;;;17.36;100.00;99986.56;5093171;28;1304;-58
2023/03/24 08:12:52;;;;;;;;;;;;;;;17.43;100.00;99985.56;5093314;28;947;-58
2023/03/24 08:15:19;;;;;;;;;;;;;;;17.62;100.00;99978.19;5093481;28;832;-57
2023/03/24 08:17:46;;;;;;;;;;;;;;;17.79;100.00;99976.09;5091902;28;846;-57
2023/03/24 08:20:13;;;;;;;;;;;;;;;17.77;100.00;99973.72;5093241;28;1909;-57
2023/03/24 08:22:44;;;;;;;;;;;;;;;17.98;100.00;99971.50;5093377;28;882;-57
2023/03/24 08:25:11;;;;;;;;;;;;;;;17.93;100.00;99972.88;5093650;28;831;-58
2023/03/24 08:27:39;;;;;;;;;;;;;;;17.79;100.00;99968.47;5093549;28;847;-57
2023/03/24 08:30:07;;;;;;;;;;;;;;;17.71;100.00;99962.34;5093431;28;887;-58
2023/03/24 08:32:34;;;;;;;;;;;;;;;17.86;100.00;99964.69;5093223;28;850;-58
2023/03/24 08:35:03;;;;;;;;;;;;;;;18.12;100.00;99960.63;5093122;28;883;-57
2023/03/24 08:37:30;;;;;;;;;;;;;;;17.87;100.00;99953.06;5092848;28;903;-57
2023/03/24 08:39:57;;;;;;;;;;;;;;;17.32;100.00;99961.53;5092908;28;1885;-58
2023/03/24 08:42:24;;;;;;;;;;;;;;;17.48;100.00;99962.66;5092785;28;914;-57
2023/03/24 08:44:52;;;;;;;;;;;;;;;17.60;100.00;99956.28;5092695;28;1061;-58
2023/03/24 08:47:18;;;;;;;;;;;;;;;17.73;100.00;99956.28;5092779;28;812;-58
2023/03/24 08:49:48;;;;;;;;;;;;;;;17.68;100.00;99949.25;5092632;28;890;-57
2023/03/24 08:52:16;;;;;;;;;;;;;;;17.81;100.00;99954.03;5092786;28;855;-58
2023/03/24 08:54:43;;;;;;;;;;;;;;;18.24;100.00;99955.44;5092643;28;910;-58
2023/03/24 08:57:09;;;;;;;;;;;;;;;18.27;100.00;99957.38;5092868;28;883;-58
2023/03/24 08:59:37;;;;;;;;;;;;;;;18.15;100.00;99953.34;5092544;28;1952;-58
2023/03/24 09:02:08;;;;;;;;;;;;;;;18.08;100.00;99953.59;5092499;28;958;-58
2023/03/24 09:04:34;;;;;;;;;;;;;;;18.14;100.00;99949.78;5092452;28;944;-58
2023/03/24 09:07:02;;;;;;;;;;;;;;;18.11;100.00;99952.69;5074201;28;1203;-58
2023/03/24 09:09:29;;;;;;;;;;;;;;;17.96;100.00;99955.16;5092430;28;1226;-58
2023/03/24 09:11:56;;;;;;;;;;;;;;;17.70;100.00;99957.97;5092201;28;863;-57
2023/03/24 09:14:23;;;;;;;;;;;;;;;17.52;100.00;99957.75;5092294;28;903;-57
2023/03/24 09:16:50;;;;;;;;;;;;;;;17.30;100.00;99960.41;5074048;28;875;-58
2023/03/24 09:19:20;;;;;;;;;;;;;;;17.52;100.00;99957.75;5074185;28;1983;-58
2023/03/24 09:21:47;;;;;;;;;;;;;;;18.01;100.00;99948.22;5092122;28;831;-58
2023/03/24 09:24:13;;;;;;;;;;;;;;;18.13;100.00;99939.81;5092136;28;800;-58
2023/03/24 09:26:40;;;;;;;;;;;;;;;18.03;100.00;99946.56;5092088;28;840;-58
2023/03/24 09:29:09;;;;;;;;;;;;;;;17.70;100.00;99946.78;5073416;28;1366;-57
2023/03/24 09:31:36;;;;;;;;;;;;;;;17.55;100.00;99946.44;5092199;28;895;-58
2023/03/24 09:34:02;;;;;;;;;;;;;;;17.53;100.00;99948.13;5091942;28;824;-57
2023/03/24 09:36:29;;;;;;;;;;;;;;;17.63;100.00;99951.84;5092303;28;836;-57
2023/03/24 09:38:56;;;;;;;;;;;;;;;17.56;100.00;99952.84;5091781;28;1885;-57
2023/03/24 10:09:52;;;;;;;;;;;;;;;18.04;100.00;99920.16;5831039;22;1672;-67
2023/03/24 10:12:30;;;;;;;;;;;;;;;17.87;100.00;99927.13;5073392;28;1274;-68
2023/03/24 10:14:56;;;;;;;;;;;;;;;17.86;100.00;99919.94;5091783;28;902;-68
2023/03/24 10:17:39;;;;;;;;;;;;;;;17.86;92.21;99909.56;5091485;28;818;-68
2023/03/24 10:20:41;;;;;;;;;;;;;;;17.74;91.85;99911.13;5091415;28;1983;-69
2023/03/24 10:23:17;;;;;;;;;;;;;;;18.19;96.75;99908.50;5009363;28;1219;-68
2023/03/24 10:26:00;;;;;;;;;;;;;;;18.63;100.00;99906.53;5080447;28;943;-69
2023/03/24 10:28:34;;;;;;;;;;;;;;;19.01;100.00;99913.94;5091754;28;811;-68
2023/03/24 10:31:03;;;;;;;;;;;;;;;19.21;100.00;99902.38;5091323;28;815;-68
2023/03/24 10:33:30;;;;;;;;;;;;;;;19.05;90.37;99905.41;5073160;28;1370;-67
2023/03/24 10:36:00;;;;;;;;;;;;;;;18.95;90.53;99899.75;5091340;28;803;-67
2023/03/24 10:38:27;;;;;;;;;;;;;;;18.97;90.17;99896.50;5091146;28;1952;-67
2023/03/24 10:40:55;;;;;;;;;;;;;;;19.18;92.71;99892.88;5093075;28;858;-67
2023/03/24 10:43:22;;;;;;;;;;;;;;;19.26;86.06;99890.56;5095248;28;823;-67
2023/03/24 10:45:58;;;;;;;;;;;;;;;19.40;94.43;99889.22;5095114;28;1000;-67
2023/03/24 10:48:42;;;;;;;;;;;;;;;19.65;94.14;99896.63;5095387;28;828;-66
2023/03/24 10:51:25;;;;;;;;;;;;;;;19.71;92.13;99894.03;5095059;28;851;-67
2023/03/24 10:54:09;;;;;;;;;;;;;;;19.81;83.91;99894.84;5095053;28;819;-67
2023/03/24 10:56:43;;;;;;;;;;;;;;;19.61;86.87;99887.59;5095011;28;843;-67
2023/03/24 10:59:19;;;;;;;;;;;;;;;19.77;88.71;99889.38;5094775;28;1951;-68
2023/03/24 11:01:46;;;;;;;;;;;;;;;19.84;94.27;99874.25;5094896;28;803;-68
2023/03/24 11:04:14;;;;;;;;;;;;;;;19.68;80.94;99869.69;5094881;28;839;-68
2023/03/24 11:06:53;;;;;;;;;;;;;;;19.53;86.09;99859.06;5094803;28;870;-68
2023/03/24 11:09:21;;;;;;;;;;;;;;;19.74;72.97;99870.69;5094693;28;936;-68
2023/03/24 11:11:49;;;;;;;;;;;;;;;19.67;73.65;99857.72;5094543;28;1290;-68
2023/03/24 11:14:24;;;;;;;;;;;;;;;19.65;75.23;99851.78;5094636;28;812;-68
2023/03/24 11:16:51;;;;;;;;;;;;;;;20.02;72.11;99856.69;5094642;28;835;-68
2023/03/24 11:19:18;;;;;;;;;;;;;;;20.23;70.36;99841.72;5094505;28;1914;-68
2023/03/24 11:21:45;;;;;;;;;;;;;;;20.51;71.56;99842.47;5094720;28;827;-68
2023/03/24 11:24:14;;;;;;;;;;;;;;;20.58;71.00;99836.56;5094683;28;823;-67
2023/03/24 11:26:45;;;;;;;;;;;;;;;20.62;77.15;99836.41;5094519;28;886;-68
2023/03/24 11:29:17;;;;;;;;;;;;;;;20.86;69.06;99830.88;5094374;28;827;-68
2023/03/24 11:31:49;;;;;;;;;;;;;;;20.93;65.21;99826.94;5094367;28;811;-66
2023/03/24 11:34:23;;;;;;;;;;;;;;;20.96;65.09;99828.81;5094434;28;862;-68
2023/03/24 11:36:55;;;;;;;;;;;;;;;20.99;66.71;99822.25;5094166;28;871;-68
2023/03/24 11:39:23;;;;;;;;;;;;;;;20.97;65.66;99819.13;5093954;28;1917;-68
2023/03/24 11:41:52;;;;;;;;;;;;;;;20.84;65.69;99819.31;5094147;28;867;-68
2023/03/24 11:44:23;;;;;;;;;;;;;;;20.71;64.12;99815.94;5094044;28;800;-69
2023/03/24 11:46:55;;;;;;;;;;;;;;;20.36;69.18;99813.50;5094024;28;831;-68
2023/03/24 11:49:24;;;;;;;;;;;;;;;20.51;69.58;99816.44;5075775;28;1220;-68
2023/03/24 11:51:53;;;;;;;;;;;;;;;20.90;69.77;99811.03;5093573;28;780;-68
2023/03/24 11:54:22;;;;;;;;;;;;;;;19.94;67.87;99808.53;5093849;28;874;-67
2023/03/24 11:56:52;;;;;;;;;;;;;;;18.90;69.45;99809.94;5094102;28;816;-68
2023/03/24 11:59:30;;;;;;;;;;;;;;;18.59;70.45;99812.72;5093709;28;1894;-68
2023/03/24 12:02:00;;;;;;;;;;;;;;;18.86;69.89;99800.91;5093740;28;886;-68
2023/03/24 12:04:35;;;;;;;;;;;;;;;19.31;72.41;99805.91;5093687;28;866;-68
2023/03/24 12:07:15;;;;;;;;;;;;;;;20.45;69.57;99798.66;5093639;28;862;-68
2023/03/24 12:09:58;;;;;;;;;;;;;;;21.37;72.79;99790.69;5075249;28;1457;-68
2023/03/24 12:12:25;;;;;;;;;;;;;;;21.97;65.20;99786.06;5093896;28;855;-68
2023/03/24 12:15:04;;;;;;;;;;;;;;;22.26;64.67;99783.81;5093963;28;895;-68
2023/03/24 12:17:40;;;;;;;;;;;;;;;22.86;67.67;99778.94;5093363;28;811;-68
2023/03/24 12:20:06;;;;;;;;;;;;;;;23.45;62.53;99773.16;5093634;28;1902;-68
2023/03/24 12:22:51;;;;;;;;;;;;;;;23.79;60.30;99773.59;5093717;28;855;-68
2023/03/24 12:25:26;;;;;;;;;;;;;;;23.73;60.30;99773.53;5093237;28;882;-69
2023/03/24 12:28:08;;;;;;;;;;;;;;;23.45;52.28;99770.34;5093280;28;894;-69
2023/03/24 12:30:50;;;;;;;;;;;;;;;23.52;51.55;99766.34;5075072;28;1239;-68
2023/03/24 12:33:20;;;;;;;;;;;;;;;23.82;58.05;99762.09;5093409;28;836;-68
2023/03/24 12:35:52;;;;;;;;;;;;;;;24.33;58.87;99767.53;5093023;28;792;-69
2023/03/24 12:38:19;;;;;;;;;;;;;;;24.71;52.75;99760.69;5093001;28;875;-69
2023/03/24 12:40:59;;;;;;;;;;;;;;;24.88;53.60;99754.38;5093281;28;1882;-69
2023/03/24 12:43:44;;;;;;;;;;;;;;;25.03;50.70;99758.59;5093103;28;843;-68
2023/03/24 12:46:30;;;;;;;;;;;;;;;24.79;47.98;99744.81;5093044;28;925;-68
2023/03/24 12:49:14;;;;;;;;;;;;;;;24.75;53.85;99741.44;5073764;28;1685;-68
2023/03/24 12:52:03;;;;;;;;;;;;;;;24.68;50.54;99741.13;5092759;28;851;-68
2023/03/24 12:54:44;;;;;;;;;;;;;;;23.97;50.55;99741.50;5091536;28;1415;-68
2023/03/24 12:57:13;;;;;;;;;;;;;;;24.03;50.42;99731.81;5093362;28;800;-68
2023/03/24 12:59:47;;;;;;;;;;;;;;;23.79;48.60;99743.34;5074459;28;1893;-68
2023/03/24 13:02:17;;;;;;;;;;;;;;;23.72;51.47;99740.16;5092318;28;852;-68
2023/03/24 13:04:45;;;;;;;;;;;;;;;24.23;55.36;99730.97;5092101;28;827;-68
2023/03/24 13:07:16;;;;;;;;;;;;;;;24.45;53.60;99730.41;5092304;28;864;-68
2023/03/24 13:09:44;;;;;;;;;;;;;;;24.67;51.07;99731.13;5092224;28;1333;-68
2023/03/24 13:12:22;;;;;;;;;;;;;;;24.39;48.58;99723.94;5092407;28;894;-68
2023/03/24 13:14:49;;;;;;;;;;;;;;;24.09;49.14;99725.44;5074085;28;1207;-67
2023/03/24 13:17:21;;;;;;;;;;;;;;;23.55;44.90;99728.66;5074058;28;1207;-67
2023/03/24 13:19:50;;;;;;;;;;;;;;;23.07;48.01;99723.44;5092305;28;1909;-67
2023/03/24 13:22:19;;;;;;;;;;;;;;;22.91;47.91;99727.53;5092201;28;859;-67
2023/03/24 13:24:46;;;;;;;;;;;;;;;23.18;48.61;99723.59;5074101;28;1490;-67
2023/03/24 13:27:23;;;;;;;;;;;;;;;23.59;47.84;99723.59;5092092;28;867;-67
2023/03/24 13:29:56;;;;;;;;;;;;;;;23.66;47.25;99717.50;5092100;28;823;-67
2023/03/24 13:32:49;;;;;;;;;;;;;;;23.88;46.77;99713.44;5092065;28;890;-67
2023/03/24 13:35:28;;;;;;;;;;;;;;;24.31;49.00;99710.75;5088448;28;1073;-67
2023/03/24 13:38:14;;;;;;;;;;;;;;;24.45;44.04;99702.16;5091867;28;883;-67
2023/03/24 13:40:41;;;;;;;;;;;;;;;24.59;47.38;99703.31;5091776;28;1957;-67
2023/03/24 13:43:17;;;;;;;;;;;;;;;24.80;45.31;99692.66;5091840;28;784;-67
2023/03/24 13:45:50;;;;;;;;;;;;;;;24.57;45.10;99700.19;5091828;28;867;-67
2023/03/24 13:48:20;;;;;;;;;;;;;;;24.14;46.18;99696.50;5092371;28;871;-67
2023/03/24 13:51:02;;;;;;;;;;;;;;;24.02;46.35;99696.38;5092003;28;863;-67